createdAt,value
2017-12-24T00:00:22.008Z,0
2017-12-24T00:01:34.520Z,0
2017-12-24T00:02:44.639Z,0
2017-12-24T00:03:54.844Z,0
2017-12-24T00:05:04.669Z,0
2017-12-24T00:06:14.292Z,0
2017-12-24T00:07:24.181Z,0
2017-12-24T00:08:34.002Z,0
2017-12-24T00:09:44.123Z,0
2017-12-24T00:10:54.263Z,0
2017-12-24T00:12:04.436Z,0
2017-12-24T00:13:14.243Z,0
2017-12-24T00:14:24.603Z,0
2017-12-24T00:15:34.442Z,0
2017-12-24T00:16:44.532Z,0
2017-12-24T00:17:54.871Z,0
2017-12-24T00:19:04.995Z,0
2017-12-24T00:20:15.126Z,0
2017-12-24T00:21:25.201Z,0
2017-12-24T00:22:35.310Z,0
2017-12-24T00:23:45.401Z,0
2017-12-24T00:24:55.317Z,0
2017-12-24T00:26:05.132Z,0
2017-12-24T00:27:15.243Z,0
2017-12-24T00:28:26.172Z,0
2017-12-24T00:29:36.234Z,0
2017-12-24T00:30:46.114Z,0
2017-12-24T00:31:56.208Z,0
2017-12-24T00:33:06.487Z,0
2017-12-24T00:34:16.585Z,0
2017-12-24T00:35:27.514Z,0
2017-12-24T00:36:38.993Z,0
2017-12-24T00:37:49.125Z,0
2017-12-24T00:38:59.370Z,0
2017-12-24T00:40:09.291Z,0
2017-12-24T00:41:19.369Z,0
2017-12-24T00:42:29.523Z,0
2017-12-24T00:43:39.381Z,0
2017-12-24T00:44:49.465Z,0
2017-12-24T00:45:59.814Z,0
2017-12-24T00:47:09.649Z,0
2017-12-24T00:48:19.732Z,0
2017-12-24T00:49:29.577Z,0
2017-12-24T00:50:39.656Z,0
2017-12-24T00:51:49.727Z,0
2017-12-24T00:52:59.801Z,0
2017-12-24T00:54:09.696Z,0
2017-12-24T00:55:19.898Z,0
2017-12-24T00:56:29.991Z,0
2017-12-24T00:57:40.123Z,0
2017-12-24T00:58:50.197Z,0
2017-12-24T01:00:00.017Z,0
2017-12-24T01:01:09.858Z,0
2017-12-24T01:02:20.040Z,0
2017-12-24T01:03:30.220Z,0
2017-12-24T01:04:40.330Z,0
2017-12-24T01:05:50.452Z,0
2017-12-24T01:07:00.597Z,0
2017-12-24T01:08:10.729Z,0
2017-12-24T01:09:20.804Z,0
2017-12-24T01:10:31.725Z,0
2017-12-24T01:11:41.781Z,0
2017-12-24T01:12:52.419Z,0
2017-12-24T01:14:02.471Z,0
2017-12-24T01:15:12.531Z,0
2017-12-24T01:16:22.582Z,0
2017-12-24T01:17:33.728Z,0
2017-12-24T01:18:43.767Z,0
2017-12-24T01:19:53.817Z,0
2017-12-24T01:21:03.609Z,0
2017-12-24T01:22:13.665Z,0
2017-12-24T01:23:23.723Z,0
2017-12-24T01:24:33.545Z,0
2017-12-24T01:25:43.580Z,0
2017-12-24T01:26:53.438Z,0
2017-12-24T01:28:02.966Z,0
2017-12-24T01:29:13.021Z,0
2017-12-24T01:30:23.065Z,0
2017-12-24T01:31:33.172Z,0
2017-12-24T01:32:42.976Z,0
2017-12-24T01:33:52.520Z,0
2017-12-24T01:35:02.593Z,0
2017-12-24T01:36:12.404Z,0
2017-12-24T01:37:23.104Z,0
2017-12-24T01:38:33.164Z,0
2017-12-24T01:39:42.965Z,0
2017-12-24T01:40:53.312Z,0
2017-12-24T01:42:03.360Z,0
2017-12-24T01:43:13.400Z,0
2017-12-24T01:44:23.449Z,0
2017-12-24T01:45:33.241Z,0
2017-12-24T01:46:43.307Z,0
2017-12-24T01:47:53.374Z,0
2017-12-24T01:49:03.174Z,0
2017-12-24T01:50:12.974Z,0
2017-12-24T01:51:23.076Z,0
2017-12-24T01:52:33.123Z,0
2017-12-24T01:53:43.185Z,0
2017-12-24T01:54:52.981Z,0
2017-12-24T01:56:03.096Z,0
2017-12-24T01:57:13.148Z,0
2017-12-24T01:58:23.208Z,0
2017-12-24T01:59:33.273Z,0
2017-12-24T02:00:42.819Z,0
2017-12-24T02:01:52.864Z,0
2017-12-24T02:03:02.927Z,0
2017-12-24T02:04:12.982Z,0
2017-12-24T02:05:23.027Z,0
2017-12-24T02:06:32.816Z,0
2017-12-24T02:07:42.870Z,0
2017-12-24T02:08:53.016Z,0
2017-12-24T02:10:02.798Z,0
2017-12-24T02:11:12.849Z,0
2017-12-24T02:12:22.907Z,0
2017-12-24T02:13:32.972Z,0
2017-12-24T02:14:43.039Z,0
2017-12-24T02:15:53.092Z,0
2017-12-24T02:17:02.896Z,0
2017-12-24T02:18:13.037Z,0
2017-12-24T02:19:23.087Z,0
2017-12-24T02:20:32.880Z,0
2017-12-24T02:21:42.942Z,0
2017-12-24T02:22:54.488Z,0
2017-12-24T02:24:04.296Z,0
2017-12-24T02:25:14.187Z,0
2017-12-24T02:26:24.258Z,0
2017-12-24T02:27:34.317Z,0
2017-12-24T02:28:44.386Z,0
2017-12-24T02:29:54.548Z,0
2017-12-24T02:31:04.604Z,0
2017-12-24T02:32:14.696Z,0
2017-12-24T02:33:24.754Z,0
2017-12-24T02:34:34.550Z,0
2017-12-24T02:35:44.347Z,0
2017-12-24T02:36:54.189Z,0
2017-12-24T02:38:04.254Z,0
2017-12-24T02:39:14.307Z,0
2017-12-24T02:40:24.373Z,0
2017-12-24T02:41:34.427Z,0
2017-12-24T02:42:44.484Z,0
2017-12-24T02:43:54.554Z,0
2017-12-24T02:45:04.682Z,0
2017-12-24T02:46:14.769Z,0
2017-12-24T02:47:24.615Z,0
2017-12-24T02:48:34.741Z,0
2017-12-24T02:49:44.797Z,0
2017-12-24T02:50:54.856Z,0
2017-12-24T02:52:04.911Z,0
2017-12-24T02:53:14.989Z,0
2017-12-24T02:54:30.464Z,0
2017-12-24T02:55:40.252Z,0
2017-12-24T02:56:50.046Z,0
2017-12-24T02:58:00.121Z,0
2017-12-24T02:59:09.933Z,0
2017-12-24T03:00:19.479Z,0
2017-12-24T03:01:29.541Z,0
2017-12-24T03:34:10.295Z,0
2017-12-24T03:35:20.351Z,0
2017-12-24T03:36:30.401Z,0
2017-12-24T03:37:40.450Z,0
2017-12-24T03:38:50.489Z,0
2017-12-24T03:40:00.540Z,0
2017-12-24T03:41:10.596Z,0
2017-12-24T03:42:20.639Z,0
2017-12-24T03:43:30.675Z,0
2017-12-24T03:44:40.762Z,0
2017-12-24T03:45:50.868Z,0
2017-12-24T03:47:00.920Z,0
2017-12-24T03:48:10.716Z,0
2017-12-24T03:49:20.517Z,0
2017-12-24T03:50:30.625Z,0
2017-12-24T03:51:40.200Z,0
2017-12-24T03:52:50.242Z,0
2017-12-24T03:53:59.777Z,0
2017-12-24T03:55:09.821Z,0
2017-12-24T03:56:19.614Z,0
2017-12-24T03:57:29.723Z,0
2017-12-24T03:58:41.078Z,0
2017-12-24T03:59:51.138Z,0
2017-12-24T04:01:01.180Z,0
2017-12-24T04:02:10.988Z,0
2017-12-24T04:03:21.019Z,0
2017-12-24T04:04:30.303Z,0
2017-12-24T04:05:40.364Z,0
2017-12-24T04:06:50.433Z,0
2017-12-24T04:08:00.274Z,0
2017-12-24T04:09:10.366Z,0
2017-12-24T04:10:20.423Z,0
2017-12-24T04:11:30.481Z,0
2017-12-24T04:12:40.549Z,0
2017-12-24T04:13:50.080Z,0
2017-12-24T04:15:00.142Z,0
2017-12-24T04:16:09.944Z,0
2017-12-24T04:17:19.997Z,0
2017-12-24T04:18:30.053Z,0
2017-12-24T04:19:40.118Z,0
2017-12-24T04:20:50.170Z,0
2017-12-24T04:22:00.217Z,0
2017-12-24T04:23:10.026Z,0
2017-12-24T04:24:19.822Z,0
2017-12-24T04:25:29.880Z,0
2017-12-24T04:26:39.939Z,0
2017-12-24T04:27:49.996Z,0
2017-12-24T04:29:00.033Z,0
2017-12-24T04:30:09.826Z,0
2017-12-24T04:31:19.880Z,0
2017-12-24T04:32:29.413Z,0
2017-12-24T04:33:39.478Z,0
2017-12-24T04:34:49.545Z,0
2017-12-24T04:35:59.584Z,0
2017-12-24T04:37:09.632Z,0
2017-12-24T04:38:19.681Z,0
2017-12-24T04:39:29.485Z,0
2017-12-24T04:40:39.537Z,0
2017-12-24T04:41:49.585Z,0
2017-12-24T04:42:59.646Z,0
2017-12-24T04:44:09.438Z,0
2017-12-24T04:45:19.483Z,0
2017-12-24T04:46:29.534Z,0
2017-12-24T04:47:39.326Z,0
2017-12-24T04:48:49.372Z,0
2017-12-24T04:49:59.008Z,0
2017-12-24T04:51:09.063Z,0
2017-12-24T04:52:18.838Z,0
2017-12-24T04:53:28.901Z,0
2017-12-24T04:54:38.701Z,0
2017-12-24T04:55:48.484Z,0
2017-12-24T04:56:58.540Z,0
2017-12-24T04:58:08.340Z,0
2017-12-24T04:59:18.382Z,0
2017-12-24T05:00:27.924Z,0
2017-12-24T05:01:37.731Z,0
2017-12-24T05:02:47.784Z,0
2017-12-24T05:03:57.577Z,0
2017-12-24T05:05:07.636Z,0
2017-12-24T05:06:17.425Z,0
2017-12-24T05:07:27.216Z,0
2017-12-24T05:08:37.272Z,0
2017-12-24T05:09:47.334Z,0
2017-12-24T05:10:57.155Z,0
2017-12-24T05:12:07.739Z,0
2017-12-24T05:13:17.869Z,0
2017-12-24T05:14:27.935Z,0
2017-12-24T05:15:37.717Z,0
2017-12-24T05:16:47.774Z,0
2017-12-24T05:17:57.822Z,0
2017-12-24T05:19:07.883Z,0
2017-12-24T05:20:17.929Z,0
2017-12-24T05:21:27.731Z,0
2017-12-24T05:22:37.523Z,0
2017-12-24T05:23:47.316Z,0
2017-12-24T05:24:57.173Z,0
2017-12-24T05:26:07.213Z,0
2017-12-24T05:27:17.275Z,0
2017-12-24T05:28:27.325Z,0
2017-12-24T05:29:36.861Z,0
2017-12-24T05:30:46.716Z,0
2017-12-24T05:31:56.241Z,0
2017-12-24T05:33:06.024Z,0
2017-12-24T05:34:15.806Z,0
2017-12-24T05:35:25.598Z,0
2017-12-24T05:36:35.713Z,0
2017-12-24T05:37:45.773Z,0
2017-12-24T05:38:55.827Z,0
2017-12-24T05:40:05.879Z,0
2017-12-24T05:41:15.907Z,0
2017-12-24T05:42:25.444Z,0
2017-12-24T05:43:35.501Z,0
2017-12-24T05:44:45.116Z,0
2017-12-24T05:45:55.184Z,0
2017-12-24T05:47:05.225Z,0
2017-12-24T05:48:15.323Z,0
2017-12-24T05:49:25.372Z,0
2017-12-24T05:50:35.179Z,0
2017-12-24T05:51:45.241Z,0
2017-12-24T05:52:55.306Z,0
2017-12-24T05:54:05.101Z,0
2017-12-24T05:55:15.167Z,0
2017-12-24T05:56:24.960Z,0
2017-12-24T05:57:34.762Z,0
2017-12-24T05:58:44.841Z,0
2017-12-24T05:59:54.638Z,0
2017-12-24T06:01:04.427Z,0
2017-12-24T06:02:15.528Z,0
2017-12-24T06:03:25.591Z,0
2017-12-24T06:04:35.656Z,0
2017-12-24T06:05:45.709Z,0
2017-12-24T06:06:55.806Z,0
2017-12-24T06:08:05.862Z,0
2017-12-24T06:09:15.913Z,0
2017-12-24T06:10:25.956Z,0
2017-12-24T06:11:36.028Z,0
2017-12-24T06:12:46.084Z,0
2017-12-24T06:13:56.170Z,0
2017-12-24T06:15:06.226Z,0
2017-12-24T06:16:16.039Z,0
2017-12-24T06:17:25.887Z,0
2017-12-24T06:18:35.928Z,0
2017-12-24T06:19:45.985Z,0
2017-12-24T06:20:55.523Z,0
2017-12-24T06:22:05.055Z,0
2017-12-24T06:23:15.139Z,0
2017-12-24T06:24:24.928Z,0
2017-12-24T06:25:34.722Z,0
2017-12-24T06:26:44.775Z,0
2017-12-24T06:27:55.373Z,0
2017-12-24T06:29:05.169Z,0
2017-12-24T06:30:15.234Z,0
2017-12-24T06:31:25.283Z,0
2017-12-24T06:32:35.345Z,0
2017-12-24T06:33:45.393Z,0
2017-12-24T06:34:55.514Z,0
2017-12-24T06:36:05.303Z,0
2017-12-24T06:37:15.715Z,0
2017-12-24T06:38:25.512Z,0
2017-12-24T06:39:35.305Z,0
2017-12-24T06:40:45.152Z,0
2017-12-24T06:41:55.226Z,5
2017-12-24T06:43:05.294Z,5
2017-12-24T06:44:15.334Z,5
2017-12-24T06:45:25.383Z,5
2017-12-24T06:46:35.443Z,5
2017-12-24T06:47:45.501Z,5
2017-12-24T06:48:55.285Z,5
2017-12-24T06:50:05.385Z,5
2017-12-24T06:51:16.142Z,10
2017-12-24T06:52:26.245Z,10
2017-12-24T06:53:36.316Z,10
2017-12-24T06:54:46.117Z,10
2017-12-24T06:55:56.154Z,10
2017-12-24T06:57:05.706Z,15
2017-12-24T06:58:15.501Z,15
2017-12-24T06:59:25.566Z,15
2017-12-24T07:00:35.635Z,15
2017-12-24T07:01:45.701Z,20
2017-12-24T07:02:55.759Z,20
2017-12-24T07:04:05.550Z,20
2017-12-24T07:05:15.354Z,20
2017-12-24T07:06:25.405Z,25
2017-12-24T07:07:35.218Z,25
2017-12-24T07:08:45.274Z,25
2017-12-24T07:09:55.073Z,25
2017-12-24T07:11:04.878Z,30
2017-12-24T07:12:14.931Z,30
2017-12-24T07:13:24.989Z,30
2017-12-24T07:14:35.053Z,30
2017-12-24T07:15:45.153Z,35
2017-12-24T07:16:55.213Z,35
2017-12-24T07:18:05.259Z,35
2017-12-24T07:19:15.328Z,40
2017-12-24T07:20:25.404Z,40
2017-12-24T07:21:36.011Z,40
2017-12-24T07:22:46.056Z,40
2017-12-24T07:23:56.117Z,40
2017-12-24T07:25:05.932Z,40
2017-12-24T07:26:17.094Z,40
2017-12-24T07:27:27.197Z,45
2017-12-24T07:28:37.003Z,45
2017-12-24T07:29:46.524Z,55
2017-12-24T07:30:56.601Z,50
2017-12-24T07:32:06.136Z,50
2017-12-24T07:33:15.719Z,45
2017-12-24T07:34:25.516Z,50
2017-12-24T07:35:35.575Z,50
2017-12-24T07:36:45.621Z,55
2017-12-24T07:37:55.677Z,55
2017-12-24T07:39:05.467Z,55
2017-12-24T07:40:15.525Z,55
2017-12-24T07:41:25.582Z,55
2017-12-24T07:42:35.697Z,60
2017-12-24T07:43:45.753Z,60
2017-12-24T07:44:55.547Z,60
2017-12-24T07:46:05.349Z,60
2017-12-24T07:47:15.427Z,60
2017-12-24T07:48:25.473Z,60
2017-12-24T07:49:35.620Z,60
2017-12-24T07:50:45.723Z,60
2017-12-24T07:51:55.528Z,65
2017-12-24T07:53:05.584Z,55
2017-12-24T07:54:15.648Z,55
2017-12-24T07:55:25.821Z,55
2017-12-24T07:56:35.355Z,50
2017-12-24T07:57:45.392Z,50
2017-12-24T07:58:55.529Z,50
2017-12-24T08:00:05.623Z,45
2017-12-24T08:01:15.675Z,45
2017-12-24T08:02:25.753Z,45
2017-12-24T08:03:35.828Z,45
2017-12-24T08:04:45.632Z,40
2017-12-24T08:05:55.184Z,40
2017-12-24T08:07:04.973Z,40
2017-12-24T08:08:15.415Z,40
2017-12-24T08:09:25.484Z,40
2017-12-24T08:10:35.278Z,40
2017-12-24T08:11:45.328Z,40
2017-12-24T08:12:55.381Z,45
2017-12-24T08:14:05.516Z,45
2017-12-24T08:15:15.577Z,45
2017-12-24T08:16:25.621Z,45
2017-12-24T08:17:35.726Z,45
2017-12-24T08:18:45.760Z,45
2017-12-24T08:19:55.341Z,45
2017-12-24T08:21:05.473Z,45
2017-12-24T08:22:15.259Z,45
2017-12-24T08:23:25.321Z,45
2017-12-24T08:24:35.108Z,45
2017-12-24T08:25:46.066Z,45
2017-12-24T08:26:56.617Z,45
2017-12-24T08:28:06.827Z,45
2017-12-24T08:29:16.649Z,45
2017-12-24T08:30:26.738Z,45
2017-12-24T08:31:36.542Z,45
2017-12-24T08:32:46.349Z,50
2017-12-24T08:33:56.414Z,50
2017-12-24T08:35:06.198Z,50
2017-12-24T08:36:16.251Z,50
2017-12-24T08:37:26.312Z,50
2017-12-24T08:38:36.373Z,50
2017-12-24T08:39:46.799Z,50
2017-12-24T08:40:56.869Z,50
2017-12-24T08:42:06.938Z,50
2017-12-24T08:43:17.013Z,50
2017-12-24T08:44:28.126Z,50
2017-12-24T08:45:39.467Z,50
2017-12-24T08:46:49.545Z,55
2017-12-24T08:47:59.354Z,55
2017-12-24T08:49:09.466Z,55
2017-12-24T08:50:19.533Z,55
2017-12-24T08:51:29.139Z,55
2017-12-24T08:52:39.192Z,55
2017-12-24T08:53:49.253Z,55
2017-12-24T08:54:59.066Z,55
2017-12-24T08:56:09.142Z,60
2017-12-24T08:57:19.231Z,60
2017-12-24T08:58:29.286Z,60
2017-12-24T08:59:39.336Z,60
2017-12-24T09:00:49.424Z,60
2017-12-24T09:01:59.253Z,60
2017-12-24T09:03:09.532Z,60
2017-12-24T09:04:19.355Z,65
2017-12-24T09:05:30.378Z,65
2017-12-24T09:06:40.446Z,65
2017-12-24T09:07:50.511Z,70
2017-12-24T09:09:00.620Z,70
2017-12-24T09:10:11.321Z,70
2017-12-24T09:11:21.142Z,70
2017-12-24T09:12:31.297Z,70
2017-12-24T09:13:41.116Z,70
2017-12-24T09:14:52.132Z,75
2017-12-24T09:16:02.186Z,80
2017-12-24T09:17:13.448Z,95
2017-12-24T09:18:23.562Z,95
2017-12-24T09:19:33.437Z,110
2017-12-24T09:20:43.510Z,110
2017-12-24T09:21:53.350Z,115
2017-12-24T09:23:03.162Z,130
2017-12-24T09:24:12.972Z,130
2017-12-24T09:25:22.776Z,125
2017-12-24T09:26:32.695Z,125
2017-12-24T09:27:42.767Z,130
2017-12-24T09:28:52.834Z,125
2017-12-24T09:30:02.994Z,135
2017-12-24T09:31:13.122Z,135
2017-12-24T09:32:23.190Z,140
2017-12-24T09:33:33.282Z,140
2017-12-24T09:34:43.484Z,135
2017-12-24T09:35:53.660Z,145
2017-12-24T09:37:03.780Z,135
2017-12-24T09:38:13.899Z,135
2017-12-24T09:39:23.481Z,140
2017-12-24T09:40:33.571Z,135
2017-12-24T09:41:43.686Z,140
2017-12-24T09:42:53.774Z,145
2017-12-24T09:44:03.899Z,145
2017-12-24T09:45:13.834Z,145
2017-12-24T09:46:23.724Z,145
2017-12-24T09:47:33.872Z,145
2017-12-24T09:48:44.065Z,145
2017-12-24T09:49:54.231Z,150
2017-12-24T09:51:04.337Z,150
2017-12-24T09:52:14.411Z,150
2017-12-24T09:53:24.576Z,150
2017-12-24T09:54:34.684Z,140
2017-12-24T09:55:44.845Z,135
2017-12-24T09:56:54.723Z,150
2017-12-24T09:58:04.832Z,155
2017-12-24T09:59:14.979Z,150
2017-12-24T10:00:25.061Z,155
2017-12-24T10:01:35.137Z,155
2017-12-24T10:02:45.257Z,155
2017-12-24T10:03:55.072Z,150
2017-12-24T10:05:06.684Z,155
2017-12-24T10:06:16.787Z,155
2017-12-24T10:07:26.944Z,155
2017-12-24T10:08:37.066Z,155
2017-12-24T10:09:47.162Z,155
2017-12-24T10:10:57.073Z,155
2017-12-24T10:12:06.629Z,155
2017-12-24T10:13:16.469Z,155
2017-12-24T10:14:26.582Z,155
2017-12-24T10:15:36.704Z,155
2017-12-24T10:16:46.589Z,155
2017-12-24T10:17:56.659Z,155
2017-12-24T10:19:06.206Z,155
2017-12-24T10:20:16.325Z,155
2017-12-24T10:21:26.407Z,155
2017-12-24T10:22:36.338Z,155
2017-12-24T10:23:46.152Z,155
2017-12-24T10:24:56.237Z,155
2017-12-24T10:26:06.083Z,155
2017-12-24T10:27:16.242Z,155
2017-12-24T10:28:26.319Z,155
2017-12-24T10:29:37.609Z,155
2017-12-24T10:30:47.471Z,155
2017-12-24T10:31:57.376Z,160
2017-12-24T10:33:07.198Z,160
2017-12-24T10:34:17.397Z,160
2017-12-24T10:35:27.242Z,155
2017-12-24T10:36:37.335Z,155
2017-12-24T10:37:47.202Z,155
2017-12-24T10:38:57.308Z,160
2017-12-24T10:40:07.382Z,155
2017-12-24T10:41:17.210Z,160
2017-12-24T10:42:27.327Z,160
2017-12-24T10:43:37.440Z,155
2017-12-24T10:44:47.513Z,160
2017-12-24T10:45:57.447Z,160
2017-12-24T10:47:07.279Z,160
2017-12-24T10:48:17.399Z,160
2017-12-24T10:49:27.513Z,160
2017-12-24T10:50:37.604Z,160
2017-12-24T10:51:47.706Z,160
2017-12-24T10:52:57.285Z,160
2017-12-24T10:54:07.374Z,160
2017-12-24T10:55:17.240Z,160
2017-12-24T10:56:27.331Z,160
2017-12-24T10:57:37.442Z,160
2017-12-24T10:58:47.534Z,160
2017-12-24T10:59:57.620Z,160
2017-12-24T11:01:07.734Z,160
2017-12-24T11:02:17.850Z,165
2017-12-24T11:03:27.680Z,165
2017-12-24T11:04:37.803Z,165
2017-12-24T11:05:47.899Z,165
2017-12-24T11:06:58.007Z,165
2017-12-24T11:08:08.095Z,165
2017-12-24T11:09:17.930Z,165
2017-12-24T11:10:28.057Z,165
2017-12-24T11:11:38.200Z,165
2017-12-24T11:12:48.024Z,165
2017-12-24T11:13:58.122Z,165
2017-12-24T11:15:08.309Z,170
2017-12-24T11:16:19.098Z,165
2017-12-24T11:17:28.917Z,165
2017-12-24T11:18:39.025Z,170
2017-12-24T11:19:48.849Z,170
2017-12-24T11:20:59.013Z,165
2017-12-24T11:22:08.845Z,170
2017-12-24T11:23:19.009Z,170
2017-12-24T11:24:28.827Z,170
2017-12-24T11:25:38.891Z,170
2017-12-24T11:26:48.977Z,170
2017-12-24T11:27:59.016Z,170
2017-12-24T11:29:09.100Z,170
2017-12-24T11:30:19.193Z,170
2017-12-24T11:31:29.238Z,170
2017-12-24T11:32:39.362Z,170
2017-12-24T11:33:49.414Z,170
2017-12-24T11:34:59.464Z,170
2017-12-24T11:36:09.257Z,170
2017-12-24T11:37:19.062Z,170
2017-12-24T11:38:28.926Z,170
2017-12-24T11:39:39.024Z,170
2017-12-24T11:40:48.825Z,170
2017-12-24T11:41:58.890Z,165
2017-12-24T11:43:08.971Z,165
2017-12-24T11:44:19.044Z,165
2017-12-24T11:45:29.110Z,165
2017-12-24T11:46:38.938Z,165
2017-12-24T11:47:49.014Z,165
2017-12-24T11:48:59.077Z,165
2017-12-24T11:50:09.158Z,165
2017-12-24T11:51:18.949Z,165
2017-12-24T11:52:28.754Z,165
2017-12-24T11:53:38.822Z,165
2017-12-24T11:54:48.610Z,160
2017-12-24T11:55:58.670Z,165
2017-12-24T11:57:08.749Z,160
2017-12-24T11:58:18.550Z,160
2017-12-24T11:59:28.333Z,160
2017-12-24T12:00:38.394Z,165
2017-12-24T12:01:48.496Z,160
2017-12-24T12:02:58.552Z,160
2017-12-24T12:04:09.113Z,160
2017-12-24T12:05:19.185Z,160
2017-12-24T12:06:29.274Z,165
2017-12-24T12:07:39.400Z,160
2017-12-24T12:08:49.217Z,165
2017-12-24T12:09:59.314Z,165
2017-12-24T12:11:09.372Z,160
2017-12-24T12:12:19.459Z,160
2017-12-24T12:13:29.528Z,160
2017-12-24T12:14:39.604Z,160
2017-12-24T12:15:49.470Z,160
2017-12-24T12:16:59.523Z,160
2017-12-24T12:18:09.104Z,160
2017-12-24T12:19:19.181Z,160
2017-12-24T12:20:29.263Z,160
2017-12-24T12:21:39.334Z,160
2017-12-24T12:22:48.892Z,160
2017-12-24T12:23:58.997Z,160
2017-12-24T12:25:09.091Z,160
2017-12-24T12:26:18.670Z,165
2017-12-24T12:27:28.759Z,160
2017-12-24T12:28:38.299Z,160
2017-12-24T12:29:48.359Z,160
2017-12-24T12:30:58.496Z,155
2017-12-24T12:32:08.569Z,155
2017-12-24T12:33:18.366Z,155
2017-12-24T12:34:28.420Z,155
2017-12-24T12:35:38.486Z,155
2017-12-24T12:36:48.603Z,150
2017-12-24T12:37:58.674Z,155
2017-12-24T12:39:08.778Z,150
2017-12-24T12:40:18.600Z,150
2017-12-24T12:41:28.663Z,150
2017-12-24T12:42:38.765Z,150
2017-12-24T12:43:48.577Z,150
2017-12-24T12:44:58.644Z,145
2017-12-24T12:46:08.729Z,150
2017-12-24T12:47:18.792Z,145
2017-12-24T12:48:28.670Z,145
2017-12-24T12:49:38.744Z,145
2017-12-24T12:50:48.589Z,145
2017-12-24T12:51:58.675Z,140
2017-12-24T12:53:08.815Z,140
2017-12-24T12:54:18.861Z,140
2017-12-24T12:55:29.176Z,140
2017-12-24T12:56:39.248Z,140
2017-12-24T12:57:49.348Z,135
2017-12-24T12:58:59.475Z,135
2017-12-24T13:00:09.622Z,135
2017-12-24T13:01:19.715Z,135
2017-12-24T13:02:29.516Z,135
2017-12-24T13:03:39.594Z,130
2017-12-24T13:04:49.675Z,130
2017-12-24T13:05:59.497Z,135
2017-12-24T13:07:09.556Z,125
2017-12-24T13:08:19.621Z,125
2017-12-24T13:09:29.422Z,125
2017-12-24T13:10:39.488Z,125
2017-12-24T13:11:49.618Z,120
2017-12-24T13:12:59.432Z,120
2017-12-24T13:14:09.508Z,120
2017-12-24T13:15:19.580Z,115
2017-12-24T13:16:29.709Z,115
2017-12-24T13:17:40.376Z,115
2017-12-24T13:18:50.445Z,115
2017-12-24T13:20:00.518Z,110
2017-12-24T13:21:10.323Z,110
2017-12-24T13:22:20.137Z,110
2017-12-24T13:23:30.207Z,110
2017-12-24T13:24:40.206Z,110
2017-12-24T13:25:50.583Z,105
2017-12-24T13:27:00.657Z,105
2017-12-24T13:28:10.725Z,100
2017-12-24T13:29:20.538Z,100
2017-12-24T13:30:30.610Z,85
2017-12-24T13:31:40.674Z,70
2017-12-24T13:32:49.947Z,60
2017-12-24T13:34:00.043Z,60
2017-12-24T13:35:10.155Z,60
2017-12-24T13:36:20.286Z,60
2017-12-24T13:37:30.348Z,60
2017-12-24T13:38:40.448Z,60
2017-12-24T13:39:50.525Z,50
2017-12-24T13:41:00.664Z,45
2017-12-24T13:42:10.727Z,45
2017-12-24T13:43:20.852Z,45
2017-12-24T13:44:30.677Z,45
2017-12-24T13:45:40.802Z,40
2017-12-24T13:46:50.685Z,40
2017-12-24T13:48:00.739Z,40
2017-12-24T13:49:10.531Z,40
2017-12-24T13:50:20.669Z,40
2017-12-24T13:51:32.010Z,40
2017-12-24T13:52:41.875Z,40
2017-12-24T13:53:51.963Z,35
2017-12-24T13:55:02.040Z,35
2017-12-24T13:56:12.125Z,35
2017-12-24T13:57:22.196Z,35
2017-12-24T13:58:32.010Z,35
2017-12-24T13:59:41.807Z,35
2017-12-24T14:00:51.877Z,35
2017-12-24T14:02:01.963Z,30
2017-12-24T14:03:12.031Z,30
2017-12-24T14:04:22.117Z,30
2017-12-24T14:05:32.166Z,30
2017-12-24T14:06:42.018Z,30
2017-12-24T14:07:51.817Z,30
2017-12-24T14:09:01.881Z,30
2017-12-24T14:10:11.495Z,30
2017-12-24T14:11:21.567Z,30
2017-12-24T14:12:31.624Z,30
2017-12-24T14:13:41.424Z,25
2017-12-24T14:14:51.495Z,25
2017-12-24T14:16:01.634Z,25
2017-12-24T14:17:11.456Z,25
2017-12-24T14:18:21.517Z,25
2017-12-24T14:19:31.605Z,25
2017-12-24T14:20:41.671Z,25
2017-12-24T14:21:51.747Z,25
2017-12-24T14:23:01.847Z,25
2017-12-24T14:24:11.925Z,20
2017-12-24T14:25:21.986Z,20
2017-12-24T14:26:31.817Z,20
2017-12-24T14:27:41.889Z,20
2017-12-24T14:28:51.955Z,20
2017-12-24T14:30:01.759Z,20
2017-12-24T14:31:11.803Z,20
2017-12-24T14:32:21.880Z,20
2017-12-24T14:33:31.711Z,20
2017-12-24T14:34:41.798Z,15
2017-12-24T14:35:51.873Z,15
2017-12-24T14:37:01.955Z,15
2017-12-24T14:38:12.031Z,15
2017-12-24T14:39:22.964Z,15
2017-12-24T14:40:33.027Z,15
2017-12-24T14:41:43.075Z,15
2017-12-24T14:42:53.168Z,15
2017-12-24T14:44:03.033Z,15
2017-12-24T14:45:13.076Z,10
2017-12-24T14:46:22.900Z,10
2017-12-24T14:47:32.721Z,10
2017-12-24T14:48:42.763Z,10
2017-12-24T14:49:52.845Z,10
2017-12-24T14:51:02.936Z,10
2017-12-24T14:52:12.479Z,10
2017-12-24T14:53:22.543Z,10
2017-12-24T14:54:32.364Z,10
2017-12-24T14:55:42.189Z,5
2017-12-24T14:56:51.989Z,5
2017-12-24T14:58:02.144Z,5
2017-12-24T14:59:12.224Z,5
2017-12-24T15:00:22.296Z,5
2017-12-24T15:01:32.113Z,5
2017-12-24T15:02:41.916Z,5
2017-12-24T15:03:51.720Z,5
2017-12-24T15:05:01.507Z,5
2017-12-24T15:06:11.030Z,0
2017-12-24T15:07:20.925Z,0
2017-12-24T15:08:30.980Z,0
2017-12-24T15:09:40.779Z,0
2017-12-24T15:10:50.583Z,0
2017-12-24T15:12:00.132Z,0
2017-12-24T15:13:10.193Z,0
2017-12-24T15:14:19.993Z,0
2017-12-24T15:15:30.062Z,0
2017-12-24T15:16:40.119Z,0
2017-12-24T15:17:49.926Z,0
2017-12-24T15:19:00.063Z,0
2017-12-24T15:20:10.119Z,0
2017-12-24T15:21:20.228Z,0
2017-12-24T15:22:30.292Z,0
2017-12-24T15:23:39.833Z,0
2017-12-24T15:24:49.924Z,0
2017-12-24T15:25:59.722Z,0
2017-12-24T15:27:09.775Z,0
2017-12-24T15:28:19.841Z,0
2017-12-24T15:29:29.640Z,0
2017-12-24T15:30:39.716Z,0
2017-12-24T15:31:49.812Z,0
2017-12-24T15:32:59.870Z,0
2017-12-24T15:34:09.655Z,0
2017-12-24T15:35:19.709Z,0
2017-12-24T15:36:29.790Z,0
2017-12-24T15:37:39.370Z,0
2017-12-24T15:38:49.413Z,0
2017-12-24T15:39:59.533Z,0
2017-12-24T15:41:09.320Z,0
2017-12-24T15:42:19.137Z,0
2017-12-24T15:43:29.263Z,0
2017-12-24T15:44:39.344Z,0
2017-12-24T15:45:49.406Z,0
2017-12-24T15:46:59.204Z,0
2017-12-24T15:48:08.748Z,0
2017-12-24T15:49:18.562Z,0
2017-12-24T15:50:28.622Z,0
2017-12-24T15:51:38.695Z,0
2017-12-24T15:52:48.503Z,0
2017-12-24T15:53:58.289Z,0
2017-12-24T15:55:08.138Z,0
2017-12-24T15:56:17.682Z,0
2017-12-24T15:57:27.774Z,0
2017-12-24T15:58:37.324Z,0
2017-12-24T15:59:47.380Z,0
2017-12-24T16:00:56.921Z,0
2017-12-24T16:02:07.002Z,0
2017-12-24T16:03:17.045Z,0
2017-12-24T16:04:27.104Z,0
2017-12-24T16:05:37.167Z,0
2017-12-24T16:06:47.300Z,0
2017-12-24T16:07:57.425Z,0
2017-12-24T16:09:07.473Z,0
2017-12-24T16:10:17.285Z,0
2017-12-24T16:11:27.075Z,0
2017-12-24T16:12:36.610Z,0
2017-12-24T16:13:46.719Z,0
2017-12-24T16:14:56.526Z,0
2017-12-24T16:16:06.579Z,0
2017-12-24T16:17:16.395Z,0
2017-12-24T16:18:26.451Z,0
2017-12-24T16:19:36.242Z,0
2017-12-24T16:20:46.329Z,0
2017-12-24T16:21:56.147Z,0
2017-12-24T16:23:06.220Z,0
2017-12-24T16:24:16.335Z,0
2017-12-24T16:25:26.132Z,0
2017-12-24T16:26:36.197Z,0
2017-12-24T16:27:46.268Z,0
2017-12-24T16:28:56.336Z,0
2017-12-24T16:30:06.399Z,0
2017-12-24T16:31:16.456Z,0
2017-12-24T16:32:26.539Z,0
2017-12-24T16:33:36.634Z,0
2017-12-24T16:34:46.722Z,0
2017-12-24T16:35:56.529Z,0
2017-12-24T16:37:06.610Z,0
2017-12-24T16:38:16.668Z,0
2017-12-24T16:39:26.729Z,0
2017-12-24T16:40:36.800Z,0
2017-12-24T16:41:46.881Z,0
2017-12-24T16:42:56.954Z,0
2017-12-24T16:44:06.746Z,0
2017-12-24T16:45:16.820Z,0
2017-12-24T16:46:26.918Z,0
2017-12-24T16:47:36.766Z,0
2017-12-24T16:48:46.570Z,0
2017-12-24T16:49:56.613Z,0
2017-12-24T16:51:06.405Z,0
2017-12-24T16:52:15.952Z,0
2017-12-24T16:53:25.761Z,0
2017-12-24T16:54:35.825Z,0
2017-12-24T16:55:47.191Z,0
2017-12-24T16:56:57.275Z,0
2017-12-24T16:58:07.356Z,0
2017-12-24T16:59:17.258Z,0
2017-12-24T17:00:27.318Z,0
2017-12-24T17:01:37.403Z,0
2017-12-24T17:02:48.423Z,0
2017-12-24T17:03:58.507Z,0
2017-12-24T17:05:08.626Z,0
2017-12-24T17:06:18.682Z,0
2017-12-24T17:07:28.735Z,0
2017-12-24T17:08:38.854Z,0
2017-12-24T17:09:48.918Z,0
2017-12-24T17:10:58.988Z,0
2017-12-24T17:12:09.047Z,0
2017-12-24T17:13:20.290Z,0
2017-12-24T17:14:30.353Z,0
2017-12-24T17:15:40.424Z,0
2017-12-24T17:16:50.215Z,0
2017-12-24T17:18:00.328Z,0
2017-12-24T17:19:10.396Z,0